createdAt,value
2023-07-23T00:02:29.718Z,3.03
2023-07-23T00:07:32.585Z,2.70
2023-07-23T00:12:36.933Z,2.63
2023-07-23T00:17:40.292Z,2.95
2023-07-23T00:22:43.128Z,2.67
2023-07-23T00:27:47.303Z,2.78
2023-07-23T00:32:51.909Z,2.53
2023-07-23T00:37:54.737Z,2.58
2023-07-23T00:42:58.906Z,2.42
2023-07-23T00:48:01.959Z,2.58
2023-07-23T00:53:04.855Z,2.45
2023-07-23T00:58:10.406Z,2.55
2023-07-23T01:03:13.258Z,2.60
2023-07-23T01:08:16.265Z,2.50
2023-07-23T01:13:20.847Z,2.50
2023-07-23T01:18:24.934Z,2.28
2023-07-23T01:23:29.040Z,2.55
2023-07-23T01:28:31.876Z,2.63
2023-07-23T01:33:35.122Z,2.25
2023-07-23T01:38:39.291Z,2.35
2023-07-23T01:43:43.250Z,2.33
2023-07-23T01:48:47.080Z,2.00
2023-07-23T01:53:51.251Z,2.40
2023-07-23T01:58:54.024Z,2.13
2023-07-23T02:03:56.907Z,2.08
2023-07-23T02:09:01.042Z,2.30
2023-07-23T02:14:03.978Z,2.15
2023-07-23T02:19:06.967Z,2.10
2023-07-23T02:24:11.228Z,1.80
2023-07-23T02:29:14.129Z,1.90
2023-07-23T02:34:16.952Z,2.15
2023-07-23T02:39:21.123Z,2.10
2023-07-23T02:44:24.162Z,2.20
2023-07-23T02:49:27.052Z,2.15
2023-07-23T02:54:31.263Z,2.20
2023-07-23T02:59:34.072Z,1.80
2023-07-23T03:04:37.420Z,1.98
2023-07-23T03:09:41.570Z,2.05
2023-07-23T03:14:44.422Z,2.17
2023-07-23T03:19:47.468Z,2.00
2023-07-23T03:24:52.374Z,2.05
2023-07-23T03:29:55.194Z,2.20
2023-07-23T03:34:57.974Z,2.35
2023-07-23T03:40:02.178Z,2.20
2023-07-23T03:45:05.928Z,1.80
2023-07-23T03:50:09.414Z,2.00
2023-07-23T03:55:14.896Z,2.03
2023-07-23T04:00:17.808Z,2.10
2023-07-23T04:05:20.906Z,2.00
2023-07-23T04:10:25.204Z,2.25
2023-07-23T04:15:37.871Z,2.35
2023-07-23T04:20:40.728Z,2.13
2023-07-23T04:25:44.849Z,2.50
2023-07-23T04:30:47.668Z,2.00
2023-07-23T04:35:50.589Z,2.53
2023-07-23T04:40:54.798Z,1.95
2023-07-23T04:45:57.746Z,2.28
2023-07-23T04:51:01.862Z,2.28
2023-07-23T04:56:07.126Z,2.33
2023-07-23T05:01:12.294Z,2.25
2023-07-23T05:06:15.136Z,2.33
2023-07-23T05:11:19.302Z,2.78
2023-07-23T05:16:22.240Z,2.47
2023-07-23T05:21:25.107Z,2.92
2023-07-23T05:26:29.316Z,2.47
2023-07-23T05:31:32.489Z,2.33
2023-07-23T05:36:35.586Z,2.55
2023-07-23T05:41:39.705Z,2.30
2023-07-23T05:46:42.575Z,1.98
2023-07-23T05:51:45.372Z,2.17
2023-07-23T05:56:49.626Z,2.53
2023-07-23T06:01:52.870Z,2.20
2023-07-23T06:06:57.031Z,2.10
2023-07-23T06:12:01.251Z,2.40
2023-07-23T06:17:04.154Z,1.92
2023-07-23T06:22:07.375Z,2.13
2023-07-23T06:27:11.528Z,2.45
2023-07-23T06:32:14.400Z,2.60
2023-07-23T06:37:17.364Z,3.03
2023-07-23T06:42:21.483Z,2.10
2023-07-23T06:47:24.539Z,2.17
2023-07-23T06:52:27.403Z,1.95
2023-07-23T06:57:31.704Z,2.35
2023-07-23T07:02:34.501Z,3.33
2023-07-23T07:07:39.026Z,2.13
2023-07-23T07:12:43.298Z,2.58
2023-07-23T07:17:46.969Z,2.17
2023-07-23T07:22:49.755Z,2.10
2023-07-23T07:27:53.984Z,1.92
2023-07-23T07:32:56.940Z,2.42
2023-07-23T07:37:59.831Z,2.28
2023-07-23T07:43:04.040Z,2.13
2023-07-23T07:48:07.347Z,1.90
2023-07-23T07:53:10.454Z,2.40
2023-07-23T07:58:16.492Z,2.55
2023-07-23T08:03:19.979Z,2.03
2023-07-23T08:08:26.391Z,1.83
2023-07-23T08:13:31.028Z,2.00
2023-07-23T08:18:35.079Z,2.13
2023-07-23T08:23:38.374Z,2.30
2023-07-23T08:28:45.573Z,2.15
2023-07-23T08:33:49.935Z,2.10
2023-07-23T08:38:53.512Z,1.85
2023-07-23T08:44:29.436Z,2.08
2023-07-23T08:49:33.880Z,2.05
2023-07-23T08:54:37.079Z,1.90
2023-07-23T08:59:41.930Z,1.92
2023-07-23T09:04:44.865Z,1.55
2023-07-23T09:09:49.828Z,1.98
2023-07-23T09:14:54.376Z,2.05
2023-07-23T09:19:57.356Z,2.05
2023-07-23T09:25:01.270Z,1.77
2023-07-23T09:30:06.607Z,1.70
2023-07-23T09:35:10.626Z,1.50
2023-07-23T09:40:14.686Z,1.58
2023-07-23T09:45:19.234Z,1.67
2023-07-23T09:50:22.337Z,1.98
2023-07-23T09:55:25.778Z,1.80
2023-07-23T10:00:30.597Z,1.42
2023-07-23T10:05:34.286Z,1.73
2023-07-23T10:10:37.234Z,2.70
2023-07-23T10:15:41.960Z,1.90
2023-07-23T10:20:46.921Z,1.80
2023-07-23T10:25:50.104Z,2.15
2023-07-23T10:31:25.504Z,1.90
2023-07-23T10:36:28.911Z,1.92
2023-07-23T10:41:50.309Z,1.55
2023-07-23T10:46:56.278Z,1.63
2023-07-23T10:52:13.784Z,1.33
2023-07-23T10:57:25.457Z,1.50
2023-07-23T11:02:30.620Z,1.63
2023-07-23T11:07:34.310Z,1.73
2023-07-23T11:12:38.290Z,1.70
2023-07-23T11:17:50.757Z,1.75
2023-07-23T11:23:00.554Z,2.60
2023-07-23T11:28:03.960Z,1.77
2023-07-23T11:33:08.326Z,1.70
2023-07-23T11:38:11.322Z,2.00
2023-07-23T11:43:14.254Z,1.90
2023-07-23T11:48:20.062Z,1.90
2023-07-23T11:53:33.705Z,2.85
2023-07-23T11:58:38.072Z,2.00
2023-07-23T12:03:44.002Z,1.60
2023-07-23T12:08:47.714Z,1.75
2023-07-23T12:13:53.646Z,1.90
2023-07-23T12:19:02.277Z,1.70
2023-07-23T12:24:16.315Z,1.50
2023-07-23T12:29:20.090Z,1.67
2023-07-23T12:34:25.593Z,1.60
2023-07-23T12:39:28.739Z,1.80
2023-07-23T12:44:32.540Z,1.90
2023-07-23T12:49:37.428Z,1.60
2023-07-23T12:54:41.265Z,1.90
2023-07-23T12:59:45.119Z,1.45
2023-07-23T13:04:49.615Z,1.30
2023-07-23T13:09:53.240Z,1.40
2023-07-23T13:14:56.762Z,1.60
2023-07-23T13:20:03.799Z,1.30
2023-07-23T13:25:08.001Z,1.50
2023-07-23T13:30:11.733Z,1.92
2023-07-23T13:35:16.401Z,1.60
2023-07-23T13:40:19.538Z,1.92
2023-07-23T13:45:22.642Z,1.63
2023-07-23T13:50:34.166Z,1.70
2023-07-23T13:55:44.392Z,2.38
2023-07-23T14:00:47.447Z,2.13
2023-07-23T14:05:52.159Z,2.40
2023-07-23T14:10:55.828Z,2.67
2023-07-23T14:15:59.272Z,2.13
2023-07-23T14:21:03.947Z,2.10
2023-07-23T14:26:06.987Z,2.03
2023-07-23T14:31:10.120Z,1.73
2023-07-23T14:36:14.391Z,1.40
2023-07-23T14:41:17.399Z,1.50
2023-07-23T14:46:20.301Z,1.50
2023-07-23T14:51:24.555Z,1.33
2023-07-23T14:56:27.589Z,1.73
2023-07-23T15:01:31.074Z,1.20
2023-07-23T15:06:36.634Z,1.58
2023-07-23T15:11:40.203Z,1.40
2023-07-23T15:16:43.628Z,1.05
2023-07-23T15:21:48.560Z,1.30
2023-07-23T15:26:54.043Z,1.50
2023-07-23T15:31:57.291Z,1.50
2023-07-23T15:37:01.766Z,1.60
2023-07-23T15:42:05.603Z,1.70
2023-07-23T15:47:08.976Z,1.65
2023-07-23T15:52:13.386Z,1.98
2023-07-23T15:57:16.265Z,1.88
2023-07-23T16:02:19.227Z,1.90
2023-07-23T16:07:23.727Z,1.88
2023-07-23T16:12:26.733Z,1.48
2023-07-23T16:17:29.543Z,1.98
2023-07-23T16:22:33.773Z,1.70
2023-07-23T16:27:36.972Z,1.75
2023-07-23T16:32:41.300Z,1.38
2023-07-23T16:37:48.538Z,1.77
2023-07-23T16:42:54.570Z,1.70
2023-07-23T16:47:57.558Z,1.70
2023-07-23T16:53:01.876Z,1.80
2023-07-23T16:58:05.004Z,1.73
2023-07-23T17:03:08.312Z,1.75
2023-07-23T17:08:12.501Z,1.70
2023-07-23T17:13:17.390Z,1.73
2023-07-23T17:18:20.674Z,1.88
2023-07-23T17:23:25.623Z,1.80
2023-07-23T17:28:28.503Z,1.80
2023-07-23T17:33:31.533Z,1.67
2023-07-23T17:38:35.933Z,1.30
2023-07-23T17:43:38.977Z,1.63
2023-07-23T17:48:42.109Z,1.77
2023-07-23T17:53:47.030Z,1.65
2023-07-23T17:58:51.025Z,1.63
2023-07-23T18:03:54.808Z,1.88
2023-07-23T18:08:59.014Z,1.55
2023-07-23T18:14:01.905Z,1.80
2023-07-23T18:19:04.804Z,1.30
2023-07-23T18:24:09.192Z,1.70
2023-07-23T18:29:12.170Z,1.80
2023-07-23T18:34:15.043Z,1.63
2023-07-23T18:39:19.325Z,1.58
2023-07-23T18:44:22.215Z,1.85
2023-07-23T18:49:25.078Z,1.40
2023-07-23T18:54:29.682Z,1.70
2023-07-23T18:59:34.475Z,1.73
2023-07-23T19:04:44.129Z,1.30
2023-07-23T19:09:50.399Z,1.70
2023-07-23T19:14:53.278Z,1.80
2023-07-23T19:19:56.435Z,1.48
2023-07-23T19:25:00.629Z,1.60
2023-07-23T19:30:03.673Z,1.80
2023-07-23T19:35:08.028Z,2.00
2023-07-23T19:40:13.344Z,2.40
2023-07-23T19:45:17.135Z,1.80
2023-07-23T19:50:21.045Z,2.05
2023-07-23T19:55:25.209Z,2.40
2023-07-23T20:00:28.308Z,1.88
2023-07-23T20:05:31.274Z,2.50
2023-07-23T20:10:35.487Z,1.95
2023-07-23T20:15:38.710Z,2.45
2023-07-23T20:20:41.504Z,2.20
2023-07-23T20:25:51.416Z,1.90
2023-07-23T20:30:55.599Z,1.95
2023-07-23T20:35:59.021Z,1.85
2023-07-23T20:41:05.354Z,1.80
2023-07-23T20:46:08.407Z,1.60
2023-07-23T20:51:11.341Z,1.83
2023-07-23T20:56:17.148Z,2.05
2023-07-23T21:01:20.120Z,1.98
2023-07-23T21:06:22.940Z,1.30
2023-07-23T21:11:27.078Z,1.80
2023-07-23T21:16:32.580Z,1.70
2023-07-23T21:21:35.693Z,1.70
2023-07-23T21:26:41.812Z,1.70
2023-07-23T21:31:44.630Z,1.55
2023-07-23T21:36:47.521Z,1.42
2023-07-23T21:41:51.863Z,1.40
2023-07-23T21:46:55.004Z,1.95
2023-07-23T21:51:57.789Z,1.40
2023-07-23T21:57:02.043Z,1.27
2023-07-23T22:02:05.237Z,1.50
2023-07-23T22:07:08.128Z,1.15
2023-07-23T22:12:12.252Z,1.80
2023-07-23T22:17:15.038Z,1.33
2023-07-23T22:22:20.290Z,1.52
2023-07-23T22:27:25.769Z,1.60
2023-07-23T22:32:32.151Z,1.60
2023-07-23T22:37:36.673Z,1.38
2023-07-23T22:42:42.522Z,1.73
2023-07-23T22:47:45.793Z,1.27
2023-07-23T22:52:48.556Z,1.58
2023-07-23T22:57:52.894Z,1.33
2023-07-23T23:02:55.737Z,1.40
2023-07-23T23:07:58.622Z,1.30
2023-07-23T23:13:02.765Z,1.23
2023-07-23T23:18:05.535Z,1.23
2023-07-23T23:23:08.407Z,1.30
2023-07-23T23:28:12.608Z,1.30
2023-07-23T23:33:15.433Z,1.25
2023-07-23T23:38:18.214Z,1.40
2023-07-23T23:43:22.704Z,1.77
2023-07-23T23:48:26.582Z,1.60
2023-07-23T23:53:29.558Z,1.30
2023-07-23T23:58:33.748Z,1.25
